createdAt,value
2023-10-12T00:00:29.300Z,8.30
2023-10-12T00:03:32.497Z,11.53
2023-10-12T00:06:38.382Z,8.20
2023-10-12T00:09:41.552Z,11.05
2023-10-12T00:12:47.386Z,7.97
2023-10-12T00:15:51.252Z,9.93
2023-10-12T00:18:55.140Z,10.73
2023-10-12T00:22:02.249Z,9.93
2023-10-12T00:25:06.192Z,8.40
2023-10-12T00:28:15.215Z,10.23
2023-10-12T00:31:20.291Z,11.05
2023-10-12T00:34:24.548Z,11.70
2023-10-12T00:37:27.603Z,8.87
2023-10-12T00:40:32.845Z,10.32
2023-10-12T00:43:50.671Z,9.95
2023-10-12T00:47:09.355Z,11.70
2023-10-12T00:50:12.890Z,10.57
2023-10-12T00:53:23.846Z,10.20
2023-10-12T00:56:30.227Z,9.38
2023-10-12T00:59:35.536Z,12.27
2023-10-12T01:02:41.145Z,11.60
2023-10-12T01:05:47.304Z,7.13
2023-10-12T01:08:50.387Z,8.70
2023-10-12T01:11:59.820Z,9.05
2023-10-12T01:15:09.457Z,8.85
2023-10-12T01:18:14.268Z,10.00
2023-10-12T01:21:17.188Z,8.60
2023-10-12T01:24:30.710Z,8.33
2023-10-12T01:27:34.253Z,8.25
2023-10-12T01:30:40.255Z,8.27
2023-10-12T01:33:43.306Z,7.45
2023-10-12T01:36:46.101Z,7.93
2023-10-12T01:39:57.815Z,8.93
2023-10-12T01:43:02.435Z,10.60
2023-10-12T01:46:09.097Z,9.55
2023-10-12T01:49:13.420Z,9.82
2023-10-12T01:52:16.700Z,10.60
2023-10-12T01:55:29.723Z,10.43
2023-10-12T01:58:36.985Z,8.85
2023-10-12T02:01:43.866Z,8.30
2023-10-12T02:04:48.841Z,9.63
2023-10-12T02:07:53.261Z,12.03
2023-10-12T02:10:59.991Z,11.27
2023-10-12T02:14:04.191Z,12.57
2023-10-12T02:17:07.245Z,8.73
2023-10-12T02:20:13.280Z,9.75
2023-10-12T02:23:16.162Z,11.77
2023-10-12T02:26:31.425Z,11.87
2023-10-12T02:29:37.662Z,11.15
2023-10-12T02:32:47.814Z,12.15
2023-10-12T02:35:51.344Z,9.70
2023-10-12T02:38:56.819Z,11.00
2023-10-12T02:42:12.758Z,9.90
2023-10-12T02:45:19.200Z,11.32
2023-10-12T02:48:25.162Z,11.77
2023-10-12T02:51:28.168Z,9.45
2023-10-12T02:54:42.848Z,11.10
2023-10-12T02:57:55.049Z,9.27
2023-10-12T03:01:14.193Z,10.93
2023-10-12T03:07:24.648Z,10.93
2023-10-12T03:10:27.806Z,12.20
2023-10-12T03:13:36.448Z,10.23
2023-10-12T03:16:42.784Z,17.73
2023-10-12T03:19:49.549Z,12.18
2023-10-12T03:22:54.407Z,10.98
2023-10-12T03:25:57.516Z,11.20
2023-10-12T03:29:10.571Z,12.37
2023-10-12T03:32:17.711Z,11.02
2023-10-12T03:35:30.662Z,11.88
2023-10-12T03:38:36.320Z,10.98
2023-10-12T03:41:56.426Z,9.43
2023-10-12T03:45:09.148Z,9.53
2023-10-12T03:48:26.608Z,11.65
2023-10-12T03:51:39.535Z,9.93
2023-10-12T03:54:56.402Z,11.65
2023-10-12T03:58:07.432Z,9.23
2023-10-12T04:01:15.442Z,10.93
2023-10-12T04:04:22.721Z,10.15
2023-10-12T04:07:47.909Z,10.13
2023-10-12T04:11:07.411Z,7.88
2023-10-12T04:14:44.959Z,8.07
2023-10-12T04:17:54.296Z,8.50
2023-10-12T04:20:58.041Z,7.32
2023-10-12T04:24:14.876Z,6.75
2023-10-12T04:27:39.945Z,4.68
2023-10-12T04:31:04.496Z,5.47
2023-10-12T04:34:08.810Z,5.43
2023-10-12T04:37:13.238Z,5.63
2023-10-12T04:40:38.727Z,3.85
2023-10-12T04:43:52.961Z,4.53
2023-10-12T04:47:00.234Z,4.70
2023-10-12T04:50:08.439Z,5.93
2023-10-12T04:53:10.770Z,3.75
2023-10-12T04:56:13.988Z,5.15
2023-10-12T04:59:17.253Z,4.07
2023-10-12T05:02:31.850Z,8.13
2023-10-12T05:05:54.603Z,4.90
2023-10-12T05:08:57.349Z,6.50
2023-10-12T05:12:00.202Z,4.28
2023-10-12T05:15:12.494Z,4.95
2023-10-12T05:18:18.818Z,6.73
2023-10-12T05:21:23.081Z,6.30
2023-10-12T05:24:25.858Z,4.90
2023-10-12T05:27:34.498Z,5.25
2023-10-12T05:30:39.672Z,5.18
2023-10-12T05:34:01.984Z,5.53
2023-10-12T05:37:24.703Z,5.35
2023-10-12T05:40:36.414Z,4.40
2023-10-12T05:43:41.332Z,7.03
2023-10-12T05:46:49.326Z,5.80
2023-10-12T05:49:52.326Z,5.63
2023-10-12T05:53:00.817Z,5.35
2023-10-12T05:56:05.580Z,7.30
2023-10-12T05:59:11.050Z,6.55
2023-10-12T06:02:14.762Z,9.93
2023-10-12T06:05:18.474Z,8.50
2023-10-12T06:08:26.453Z,7.65
2023-10-12T06:11:30.684Z,6.30
2023-10-12T06:14:33.523Z,8.38
2023-10-12T06:17:41.064Z,8.23
2023-10-12T06:20:45.467Z,7.63
2023-10-12T06:23:51.792Z,6.65
2023-10-12T06:26:54.533Z,8.07
2023-10-12T06:30:04.434Z,6.78
2023-10-12T06:33:08.683Z,5.87
2023-10-12T06:36:17.708Z,7.00
2023-10-12T06:39:42.014Z,5.78
2023-10-12T06:42:46.431Z,5.55
2023-10-12T06:45:52.733Z,6.68
2023-10-12T06:49:02.091Z,5.13
2023-10-12T06:52:05.236Z,5.00
2023-10-12T06:55:10.373Z,4.32
2023-10-12T06:58:15.308Z,4.80
2023-10-12T07:01:23.214Z,3.97
2023-10-12T07:04:29.906Z,4.83
2023-10-12T07:07:38.298Z,4.07
2023-10-12T07:10:59.638Z,5.43
2023-10-12T07:14:06.156Z,4.60
2023-10-12T07:17:10.471Z,4.60
2023-10-12T07:20:28.417Z,5.30
2023-10-12T07:23:36.812Z,6.13
2023-10-12T07:26:49.439Z,6.20
2023-10-12T07:30:09.680Z,5.25
2023-10-12T07:33:12.591Z,3.97
2023-10-12T07:36:18.886Z,4.07
2023-10-12T07:39:22.180Z,3.23
2023-10-12T07:42:29.408Z,2.83
2023-10-12T07:45:39.249Z,2.97
2023-10-12T07:48:43.910Z,3.50
2023-10-12T07:52:00.788Z,4.23
2023-10-12T07:55:05.660Z,3.07
2023-10-12T07:58:13.509Z,5.05
2023-10-12T08:01:27.547Z,5.53
2023-10-12T08:04:31.251Z,4.80
2023-10-12T08:07:54.261Z,5.83
2023-10-12T08:11:00.666Z,5.50
2023-10-12T08:14:20.919Z,3.20
2023-10-12T08:17:34.935Z,3.08
2023-10-12T08:20:56.321Z,6.47
2023-10-12T08:24:06.036Z,4.30
2023-10-12T08:27:08.799Z,4.37
2023-10-12T08:30:22.930Z,3.88
2023-10-12T08:33:39.582Z,4.97
2023-10-12T08:37:04.059Z,3.38
2023-10-12T08:40:09.440Z,2.43
2023-10-12T08:43:32.396Z,3.73
2023-10-12T08:46:53.038Z,3.58
2023-10-12T08:50:03.318Z,5.03
2023-10-12T08:53:08.895Z,3.30
2023-10-12T08:56:13.342Z,4.67
2023-10-12T08:59:18.210Z,6.30
2023-10-12T09:02:23.566Z,3.88
2023-10-12T09:05:29.398Z,4.53
2023-10-12T09:08:47.511Z,5.70
2023-10-12T09:11:49.383Z,5.10
2023-10-12T09:14:56.243Z,5.53
2023-10-12T09:18:00.619Z,5.15
2023-10-12T09:21:18.256Z,4.88
2023-10-12T09:24:29.315Z,5.03
2023-10-12T09:27:39.063Z,5.00
2023-10-12T09:30:46.156Z,3.83
2023-10-12T09:33:56.251Z,4.20
2023-10-12T09:37:03.798Z,7.22
2023-10-12T09:40:25.179Z,4.20
2023-10-12T09:43:31.253Z,3.40
2023-10-12T09:46:35.342Z,5.07
2023-10-12T09:49:45.506Z,8.25
2023-10-12T09:52:59.097Z,10.00
2023-10-12T09:56:16.776Z,10.75
2023-10-12T09:59:20.835Z,9.63
2023-10-12T10:02:30.443Z,7.13
2023-10-12T10:05:53.717Z,11.48
2023-10-12T10:09:11.402Z,8.93
2023-10-12T10:12:17.022Z,5.40
2023-10-12T10:15:24.922Z,5.57
2023-10-12T10:18:30.503Z,5.77
2023-10-12T10:21:34.731Z,5.18
2023-10-12T10:24:47.777Z,10.17
2023-10-12T10:27:50.629Z,4.45
2023-10-12T10:31:00.047Z,6.95
2023-10-12T10:34:06.465Z,6.07
2023-10-12T10:37:12.870Z,4.85
2023-10-12T10:40:20.629Z,5.33
2023-10-12T10:43:25.481Z,4.83
2023-10-12T10:46:28.952Z,5.90
2023-10-12T10:49:34.800Z,5.35
2023-10-12T10:52:39.971Z,5.30
2023-10-12T10:55:43.235Z,5.63
2023-10-12T10:58:47.592Z,9.83
2023-10-12T11:01:52.209Z,4.72
2023-10-12T11:04:56.479Z,8.63
2023-10-12T11:08:19.880Z,6.68
2023-10-12T11:11:29.033Z,7.30
2023-10-12T11:14:32.880Z,4.57
2023-10-12T11:17:42.270Z,5.25
2023-10-12T11:20:51.248Z,5.50
2023-10-12T11:24:02.378Z,8.80
2023-10-12T11:27:05.749Z,6.87
2023-10-12T11:30:13.410Z,13.23
2023-10-12T11:33:18.202Z,6.78
2023-10-12T11:36:28.410Z,7.43
2023-10-12T11:39:43.482Z,6.90
2023-10-12T11:42:54.550Z,6.60
2023-10-12T11:46:02.691Z,6.10
2023-10-12T11:49:09.522Z,6.97
2023-10-12T11:52:17.113Z,6.95
2023-10-12T11:55:21.896Z,6.47
2023-10-12T11:58:24.921Z,5.10
2023-10-12T12:01:28.918Z,6.90
2023-10-12T12:04:49.876Z,5.97
2023-10-12T12:08:00.824Z,6.68
2023-10-12T12:11:05.343Z,5.00
2023-10-12T12:14:08.393Z,7.10
2023-10-12T12:17:11.395Z,3.87
2023-10-12T12:20:22.248Z,6.38
2023-10-12T12:23:28.704Z,3.92
2023-10-12T12:26:35.085Z,5.70
2023-10-12T12:29:59.560Z,4.83
2023-10-12T12:33:04.406Z,2.85
2023-10-12T12:36:11.065Z,6.68
2023-10-12T12:39:22.256Z,6.13
2023-10-12T12:42:28.129Z,4.80
2023-10-12T12:45:31.716Z,5.57
2023-10-12T12:48:34.846Z,6.50
2023-10-12T12:51:39.718Z,4.65
2023-10-12T12:54:42.615Z,7.15
2023-10-12T12:57:47.162Z,5.03
2023-10-12T13:00:50.284Z,5.77
2023-10-12T13:03:56.686Z,6.57
2023-10-12T13:07:09.132Z,6.38
2023-10-12T13:10:13.660Z,5.25
2023-10-12T13:13:17.865Z,6.25
2023-10-12T13:16:20.787Z,4.97
2023-10-12T13:19:23.752Z,7.03
2023-10-12T13:22:26.739Z,5.70
2023-10-12T13:25:30.005Z,5.32
2023-10-12T13:28:34.145Z,5.85
2023-10-12T13:31:37.051Z,5.90
2023-10-12T13:34:39.913Z,5.07
2023-10-12T13:37:42.630Z,6.40
2023-10-12T13:40:48.080Z,7.53
2023-10-12T13:43:52.415Z,5.45
2023-10-12T13:46:55.463Z,5.23
2023-10-12T13:49:58.394Z,3.83
2023-10-12T13:53:01.512Z,7.05
2023-10-12T13:56:06.031Z,7.15
2023-10-12T13:59:10.402Z,6.07
2023-10-12T14:02:13.549Z,6.07
2023-10-12T14:05:25.968Z,6.20
2023-10-12T14:08:33.310Z,4.65
2023-10-12T14:11:36.361Z,4.90
2023-10-12T14:14:40.670Z,5.03
2023-10-12T14:17:43.487Z,6.63
2023-10-12T14:20:46.562Z,6.00
2023-10-12T14:23:51.822Z,5.30
2023-10-12T14:26:56.692Z,5.70
2023-10-12T14:30:17.443Z,4.43
2023-10-12T14:33:22.040Z,6.93
2023-10-12T14:36:25.731Z,5.47
2023-10-12T14:39:31.043Z,5.38
2023-10-12T14:42:37.650Z,4.80
2023-10-12T14:45:45.724Z,6.10
2023-10-12T14:48:51.221Z,4.00
2023-10-12T14:51:55.060Z,5.13
2023-10-12T14:54:59.158Z,5.35
2023-10-12T14:58:03.262Z,5.05
2023-10-12T15:01:14.917Z,6.68
2023-10-12T15:04:18.095Z,8.17
2023-10-12T15:07:21.435Z,6.00
2023-10-12T15:10:24.567Z,7.30
2023-10-12T15:13:28.044Z,5.75
2023-10-12T15:16:32.974Z,8.82
2023-10-12T15:19:36.459Z,5.93
2023-10-12T15:22:39.423Z,6.93
2023-10-12T15:25:42.292Z,5.10
2023-10-12T15:28:48.445Z,5.47
2023-10-12T15:31:54.535Z,6.53
2023-10-12T15:34:58.836Z,3.50
2023-10-12T15:38:03.793Z,4.30
2023-10-12T15:41:07.464Z,6.50
2023-10-12T15:44:10.461Z,9.10
2023-10-12T15:47:14.630Z,8.63
2023-10-12T15:50:17.732Z,10.10
2023-10-12T15:53:22.574Z,8.90
2023-10-12T15:56:26.265Z,4.85
2023-10-12T15:59:29.002Z,7.55
2023-10-12T16:02:35.263Z,6.30
2023-10-12T16:05:38.832Z,6.60
2023-10-12T16:08:41.631Z,5.60
2023-10-12T16:11:44.363Z,5.75
2023-10-12T16:14:51.822Z,7.22
2023-10-12T16:17:58.939Z,5.80
2023-10-12T16:21:09.186Z,5.83
2023-10-12T16:24:11.907Z,6.53
2023-10-12T16:27:15.009Z,6.53
2023-10-12T16:30:19.452Z,5.53
2023-10-12T16:36:45.994Z,4.10
2023-10-12T16:39:48.740Z,4.78
2023-10-12T16:42:51.681Z,5.50
2023-10-12T16:45:58.455Z,4.68
2023-10-12T16:49:02.882Z,6.63
2023-10-12T16:52:06.389Z,4.70
2023-10-12T16:55:10.838Z,8.75
2023-10-12T16:58:13.764Z,7.20
2023-10-12T17:01:16.614Z,6.40
2023-10-12T17:04:29.277Z,7.25
2023-10-12T17:07:32.226Z,7.38
2023-10-12T17:10:35.885Z,7.90
2023-10-12T17:13:38.649Z,6.77
2023-10-12T17:16:41.642Z,7.78
2023-10-12T17:19:45.891Z,12.60
2023-10-12T17:22:48.742Z,12.38
2023-10-12T17:25:51.449Z,11.57
2023-10-12T17:28:54.578Z,8.35
2023-10-12T17:31:57.592Z,9.80
2023-10-12T17:38:22.981Z,6.63
2023-10-12T17:41:25.828Z,8.37
2023-10-12T17:44:29.463Z,6.30
2023-10-12T17:47:32.187Z,9.55
2023-10-12T17:50:38.914Z,7.88
2023-10-12T17:53:41.791Z,8.35
2023-10-12T17:56:45.452Z,8.37
2023-10-12T17:59:48.902Z,7.65
2023-10-12T18:02:52.513Z,7.50
2023-10-12T18:05:57.630Z,6.22
2023-10-12T18:09:00.890Z,8.05
2023-10-12T18:12:03.699Z,8.73
2023-10-12T18:15:09.795Z,7.93
2023-10-12T18:18:12.831Z,7.38
2023-10-12T18:21:17.098Z,5.72
2023-10-12T18:24:20.311Z,6.38
2023-10-12T18:27:23.250Z,6.80
2023-10-12T18:30:26.301Z,6.07
2023-10-12T18:33:33.613Z,6.65
2023-10-12T18:36:37.958Z,6.25
2023-10-12T18:39:41.449Z,7.32
2023-10-12T18:42:45.312Z,5.90
2023-10-12T18:45:55.763Z,6.93
2023-10-12T18:48:58.612Z,6.97
2023-10-12T18:52:03.747Z,7.80
2023-10-12T18:55:08.872Z,11.30
2023-10-12T18:58:11.894Z,10.33
2023-10-12T19:01:15.585Z,7.90
2023-10-12T19:04:18.619Z,10.32
2023-10-12T19:07:24.099Z,7.07
2023-10-12T19:10:26.931Z,8.07
2023-10-12T19:13:30.616Z,7.10
2023-10-12T19:16:35.102Z,8.95
2023-10-12T19:19:37.893Z,7.35
2023-10-12T19:22:43.680Z,7.65
2023-10-12T19:25:47.661Z,8.02
2023-10-12T19:28:50.597Z,11.87
2023-10-12T19:31:55.120Z,10.07
2023-10-12T19:34:57.912Z,8.80
2023-10-12T19:38:02.332Z,8.88
2023-10-12T19:41:06.329Z,8.07
2023-10-12T19:44:10.896Z,9.00
2023-10-12T19:47:13.913Z,10.05
2023-10-12T19:50:17.018Z,9.23
2023-10-12T19:53:22.850Z,9.15
2023-10-12T19:56:25.611Z,9.57
2023-10-12T19:59:30.027Z,7.83
2023-10-12T20:02:33.756Z,8.25
2023-10-12T20:05:38.740Z,7.70
2023-10-12T20:08:47.096Z,6.13
2023-10-12T20:11:49.861Z,6.28
2023-10-12T20:14:54.703Z,6.93
2023-10-12T20:17:57.631Z,6.80
2023-10-12T20:21:00.849Z,7.00
2023-10-12T20:24:05.375Z,6.43
2023-10-12T20:27:10.274Z,5.93
2023-10-12T20:30:13.984Z,7.20
2023-10-12T20:33:18.255Z,6.25
2023-10-12T20:36:22.481Z,7.50
2023-10-12T20:39:27.776Z,8.23
2023-10-12T20:42:30.820Z,8.43
2023-10-12T20:45:33.750Z,6.50
2023-10-12T20:48:37.689Z,6.50
2023-10-12T20:51:40.725Z,7.85
2023-10-12T20:54:44.972Z,6.28
2023-10-12T20:57:47.790Z,8.32
2023-10-12T21:00:51.622Z,7.00
2023-10-12T21:03:56.219Z,5.60
2023-10-12T21:06:59.728Z,5.65
2023-10-12T21:10:06.128Z,5.93
2023-10-12T21:13:16.423Z,7.30
2023-10-12T21:16:22.037Z,7.07
2023-10-12T21:19:26.467Z,6.65
2023-10-12T21:22:29.433Z,7.00
2023-10-12T21:25:35.079Z,6.15
2023-10-12T21:28:39.268Z,5.38
2023-10-12T21:31:44.066Z,5.80
2023-10-12T21:34:48.798Z,9.20
2023-10-12T21:37:51.627Z,8.05
2023-10-12T21:40:57.692Z,6.63
2023-10-12T21:44:05.656Z,6.03
2023-10-12T21:47:10.632Z,7.73
2023-10-12T21:50:14.849Z,5.90
2023-10-12T21:53:17.711Z,6.88
2023-10-12T21:56:22.633Z,5.00
2023-10-12T21:59:25.517Z,6.37
2023-10-12T22:02:29.705Z,8.10
2023-10-12T22:05:32.765Z,7.83
2023-10-12T22:08:37.632Z,7.10
2023-10-12T22:11:45.337Z,5.60
2023-10-12T22:14:51.976Z,6.43
2023-10-12T22:18:02.345Z,5.80
2023-10-12T22:21:05.541Z,5.40
2023-10-12T22:24:09.361Z,5.50
2023-10-12T22:27:14.225Z,7.15
2023-10-12T22:30:18.683Z,6.97
2023-10-12T22:33:21.754Z,6.47
2023-10-12T22:36:24.605Z,6.30
2023-10-12T22:39:32.560Z,6.20
2023-10-12T22:42:37.044Z,6.82
2023-10-12T22:45:39.832Z,7.55
2023-10-12T22:48:43.567Z,5.75
2023-10-12T22:51:48.601Z,5.60
2023-10-12T22:54:51.370Z,5.03
2023-10-12T22:57:55.656Z,7.38
2023-10-12T23:01:01.298Z,5.70
2023-10-12T23:04:05.013Z,6.28
2023-10-12T23:07:09.045Z,8.07
2023-10-12T23:10:14.555Z,6.50
2023-10-12T23:13:18.858Z,7.20
2023-10-12T23:16:28.474Z,6.35
2023-10-12T23:19:38.586Z,6.35
2023-10-12T23:22:43.952Z,6.77
2023-10-12T23:25:48.475Z,6.40
2023-10-12T23:28:55.598Z,5.53
2023-10-12T23:31:58.665Z,8.15
2023-10-12T23:35:06.261Z,5.53
2023-10-12T23:38:27.073Z,7.23
2023-10-12T23:41:33.831Z,6.93
2023-10-12T23:44:56.433Z,5.65
2023-10-12T23:48:11.153Z,7.93
2023-10-12T23:51:14.377Z,6.70
2023-10-12T23:54:26.841Z,6.00
2023-10-12T23:57:29.554Z,4.93
